Time;durP1;ratioP1;P1;durP2;ratioP2;P2;SDS_P1;SDS_P2;PMS_P1;PMS_P2;Temp;Humidity;BMP_temperature;BMP_pressure;BME280_temperature;BME280_humidity;BME280_pressure;Samples;Min_cycle;Max_cycle;Signal;HPM_P1;HPM_P2
2022/04/22 00:00:48;;;;;;;16.20;9.07;;;;;;;6.76;66.31;98651.50;4289133;33;33509;-67
2022/04/22 00:03:16;;;;;;;20.30;9.70;;;;;;;7.00;65.81;98648.75;4278158;33;33911;-67
2022/04/22 00:05:44;;;;;;;17.83;9.85;;;;;;;7.33;64.81;98651.94;4288780;33;35055;-67
2022/04/22 00:08:12;;;;;;;18.10;10.18;;;;;;;6.56;66.77;98639.53;4289579;33;34026;-68
2022/04/22 00:11:29;;;;;;;15.82;9.07;;;;;;;6.68;67.24;98637.78;4289727;33;33314;-67
2022/04/22 00:13:28;;;;;;;14.98;8.88;;;;;;;6.80;67.29;98637.69;4289728;33;34705;-67
2022/04/22 00:15:56;;;;;;;17.92;9.77;;;;;;;5.77;71.96;98640.72;4288642;33;35939;-67
2022/04/22 00:18:24;;;;;;;15.05;9.23;;;;;;;7.10;66.87;98636.59;4288776;33;34673;-67
2022/04/22 00:20:52;;;;;;;18.00;9.60;;;;;;;7.10;65.49;98636.59;4288582;33;33585;-68
2022/04/22 00:23:21;;;;;;;16.50;8.68;;;;;;;7.13;63.58;98633.09;4289866;33;33959;-67
2022/04/22 00:25:48;;;;;;;15.38;9.45;;;;;;;7.49;63.89;98628.50;4289593;33;35135;-67
2022/04/22 00:28:16;;;;;;;18.25;9.45;;;;;;;7.38;63.06;98629.44;4288827;33;32528;-67
2022/04/22 00:30:45;;;;;;;19.40;8.65;;;;;;;7.63;61.92;98629.19;4289588;33;34329;-67
2022/04/22 00:33:14;;;;;;;13.93;8.82;;;;;;;8.23;62.31;98623.31;4287710;33;33963;-68
2022/04/22 00:35:44;;;;;;;17.45;9.30;;;;;;;8.11;63.48;98626.91;4283492;33;36018;-67
2022/04/22 00:38:12;;;;;;;20.33;10.05;;;;;;;8.62;61.64;98617.66;4287675;33;35031;-67
2022/04/22 00:40:40;;;;;;;16.42;8.48;;;;;;;8.04;60.88;98612.31;4289472;33;33644;-67
2022/04/22 00:43:15;;;;;;;17.12;8.57;;;;;;;8.00;62.47;98612.41;4288523;33;34676;-67
2022/04/22 00:45:43;;;;;;;15.63;8.55;;;;;;;8.38;61.99;98601.50;4289400;33;34955;-67
2022/04/22 00:48:12;;;;;;;19.83;8.93;;;;;;;7.95;62.34;98608.09;4287435;33;34471;-67
2022/04/22 00:50:41;;;;;;;18.00;9.50;;;;;;;8.00;59.64;98602.03;4288600;33;34121;-70
2022/04/22 00:53:09;;;;;;;16.77;9.68;;;;;;;8.06;62.11;98595.00;4288585;33;34684;-67
2022/04/22 00:55:43;;;;;;;16.15;9.82;;;;;;;7.99;62.02;98593.38;4289017;33;35176;-67
2022/04/22 00:58:12;;;;;;;17.10;9.15;;;;;;;8.12;59.76;98589.75;4288321;33;34745;-67
2022/04/22 01:00:40;;;;;;;13.90;7.90;;;;;;;7.67;63.11;98585.97;4289137;33;33522;-68
2022/04/22 01:03:08;;;;;;;14.43;7.55;;;;;;;8.08;61.48;98580.31;4284074;33;33961;-67
2022/04/22 01:09:47;;;;;;;13.90;8.38;;;;;;;8.85;60.09;98580.97;4287279;33;34511;-67
2022/04/22 01:11:32;;;;;;;15.13;9.65;;;;;;;8.71;59.95;98581.16;4288086;33;33514;-68
2022/04/22 01:14:00;;;;;;;15.75;8.52;;;;;;;7.98;60.03;98576.13;4289214;33;33889;-67
2022/04/22 01:16:28;;;;;;;17.95;9.60;;;;;;;8.17;59.08;98574.16;4286749;33;34855;-67
2022/04/22 01:18:56;;;;;;;19.27;9.68;;;;;;;8.57;57.62;98564.97;4289531;33;35348;-67
2022/04/22 01:21:24;;;;;;;14.63;8.95;;;;;;;8.80;56.56;98565.44;4290058;33;33475;-68
2022/04/22 01:23:52;;;;;;;17.17;8.70;;;;;;;8.61;54.62;98561.44;4290204;33;34780;-68
2022/04/22 01:26:20;;;;;;;16.65;8.65;;;;;;;8.81;53.88;98559.38;4290231;33;35711;-68
2022/04/22 01:28:48;;;;;;;14.60;7.80;;;;;;;9.09;54.97;98570.16;4290986;33;34452;-68
2022/04/22 01:31:16;;;;;;;16.62;8.05;;;;;;;9.05;53.23;98557.25;4290323;33;34720;-67
2022/04/22 01:33:44;;;;;;;20.62;9.48;;;;;;;9.57;51.88;98547.66;4290942;33;34179;-68
2022/04/22 01:36:12;;;;;;;15.82;9.10;;;;;;;9.48;52.70;98546.09;4290776;33;35142;-68
2022/04/22 01:38:40;;;;;;;16.27;8.63;;;;;;;9.96;51.92;98542.53;4287779;33;34729;-67
2022/04/22 01:41:08;;;;;;;15.23;9.10;;;;;;;10.27;49.87;98544.47;4280129;33;34331;-67
2022/04/22 01:43:36;;;;;;;17.00;8.50;;;;;;;10.16;50.56;98540.34;4290058;33;34672;-67
2022/04/22 01:46:05;;;;;;;15.95;8.93;;;;;;;10.14;49.58;98533.47;4290881;33;35123;-67
2022/04/22 01:48:33;;;;;;;16.52;7.65;;;;;;;10.31;49.68;98533.12;4289835;33;35011;-67
2022/04/22 01:51:00;;;;;;;14.20;8.55;;;;;;;10.21;50.61;98522.87;4290798;33;34406;-68
2022/04/22 01:53:29;;;;;;;15.65;8.43;;;;;;;10.16;50.77;98518.69;4289856;33;34067;-67
2022/04/22 01:56:03;;;;;;;14.75;8.07;;;;;;;9.86;50.96;98511.53;4289952;33;35303;-67
2022/04/22 01:58:32;;;;;;;13.07;8.30;;;;;;;10.43;48.95;98502.47;4288953;33;34500;-67
2022/04/22 02:01:00;;;;;;;14.13;7.78;;;;;;;10.95;47.34;98495.12;4290816;33;34388;-67
2022/04/22 02:03:29;;;;;;;12.65;7.82;;;;;;;10.60;47.61;98509.03;4289800;33;34036;-67
2022/04/22 02:05:58;;;;;;;18.12;9.10;;;;;;;11.03;46.67;98505.34;4290639;33;35061;-68
2022/04/22 02:08:25;;;;;;;17.90;9.75;;;;;;;10.36;48.87;98495.72;4289848;33;34289;-67
2022/04/22 02:10:53;;;;;;;14.43;8.35;;;;;;;10.22;48.46;98503.81;4286244;33;32961;-68
2022/04/22 02:13:21;;;;;;;13.98;7.57;;;;;;;10.52;47.97;98503.16;4283838;33;34706;-67
2022/04/22 02:15:49;;;;;;;17.70;8.75;;;;;;;10.55;47.67;98500.47;4270707;33;178478;-68
2022/04/22 02:18:17;;;;;;;15.32;8.23;;;;;;;10.36;48.15;98494.84;4286531;33;35196;-67
2022/04/22 02:20:45;;;;;;;15.88;7.43;;;;;;;10.67;47.69;98489.75;4290458;33;33907;-67
2022/04/22 02:23:13;;;;;;;15.63;8.27;;;;;;;10.94;45.83;98493.44;4289751;33;34721;-67
2022/04/22 02:25:41;;;;;;;18.12;8.15;;;;;;;10.86;46.04;98492.75;4290600;33;35824;-68
2022/04/22 02:30:56;;;;;;;15.43;7.57;;;;;;;10.96;46.35;98490.78;4289718;33;33338;-67
2022/04/22 02:33:24;;;;;;;13.73;7.93;;;;;;;10.65;46.59;98490.69;4288644;33;33927;-68
2022/04/22 02:35:52;;;;;;;13.45;8.20;;;;;;;10.51;46.91;98491.87;4290436;33;35082;-67
2022/04/22 02:38:20;;;;;;;15.77;9.43;;;;;;;10.64;47.02;98484.63;4289579;33;34985;-67
2022/04/22 02:46:21;;;;;;;15.15;7.75;;;;;;;10.78;46.57;98484.28;4290425;33;34805;-67
2022/04/22 02:48:49;;;;;;;12.55;8.05;;;;;;;11.41;45.02;98472.19;4289633;33;35171;-67
2022/04/22 02:51:18;;;;;;;15.85;9.00;;;;;;;11.60;44.33;98467.31;4288770;33;33473;-68
2022/04/22 02:53:45;;;;;;;13.68;7.85;;;;;;;11.03;46.44;98471.50;4289536;33;34745;-67
2022/04/22 02:56:15;;;;;;;13.75;7.40;;;;;;;11.05;46.18;98469.69;4282115;33;35068;-67
2022/04/22 02:58:43;;;;;;;14.05;7.95;;;;;;;11.13;45.51;98464.25;4284118;33;35209;-67
2022/04/22 03:01:10;;;;;;;13.32;7.70;;;;;;;11.73;44.09;98452.13;4281255;33;34241;-67
2022/04/22 03:03:39;;;;;;;13.90;7.72;;;;;;;11.78;43.87;98460.69;4286765;33;34711;-68
2022/04/22 03:06:07;;;;;;;15.35;7.75;;;;;;;11.70;44.34;98453.09;4275418;33;34924;-67
2022/04/22 03:08:34;;;;;;;12.82;6.68;;;;;;;11.52;44.63;98459.72;4286239;33;35334;-68
2022/04/22 03:11:03;;;;;;;12.68;7.37;;;;;;;11.23;45.36;98454.47;4290417;33;33607;-67
2022/04/22 03:13:31;;;;;;;12.65;7.47;;;;;;;11.75;43.88;98458.16;4289404;33;33896;-68
2022/04/22 03:16:00;;;;;;;12.13;7.35;;;;;;;11.32;45.15;98451.59;4289369;33;35016;-68
2022/04/22 03:18:28;;;;;;;21.77;8.23;;;;;;;11.41;45.53;98450.47;4289400;33;34483;-67
2022/04/22 03:20:57;;;;;;;12.77;6.82;;;;;;;11.61;44.11;98447.28;4290100;33;33182;-68
2022/04/22 03:23:25;;;;;;;12.40;6.80;;;;;;;11.71;44.59;98435.69;4288638;33;34015;-67
2022/04/22 03:25:54;;;;;;;15.20;8.15;;;;;;;11.71;44.80;98433.94;4276108;33;34456;-68
2022/04/22 03:28:23;;;;;;;13.38;8.05;;;;;;;11.12;45.51;98432.16;4284122;33;34350;-67
2022/04/22 03:30:51;;;;;;;14.77;7.80;;;;;;;11.20;45.68;98432.78;4289091;33;33453;-67
2022/04/22 03:33:19;;;;;;;14.52;7.05;;;;;;;11.22;46.09;98429.28;4287928;33;33874;-67
2022/04/22 03:35:51;;;;;;;13.10;7.45;;;;;;;11.59;45.09;98429.06;4289736;33;36183;-67
2022/04/22 03:38:20;;;;;;;12.13;7.55;;;;;;;11.35;45.53;98425.44;4289066;33;34490;-67
2022/04/22 03:40:50;;;;;;;13.10;7.65;;;;;;;11.32;45.68;98431.59;4289629;33;33423;-68
2022/04/22 03:43:20;;;;;;;12.98;7.60;;;;;;;10.78;46.79;98434.78;4286935;33;32429;-69
2022/04/22 03:45:48;;;;;;;12.90;6.53;;;;;;;11.52;45.29;98428.44;4289873;33;35958;-67
2022/04/22 03:48:16;;;;;;;13.32;7.87;;;;;;;11.05;45.98;98428.00;4288209;33;34524;-69
2022/04/22 03:50:44;;;;;;;14.52;7.70;;;;;;;11.60;46.13;98425.59;4289906;33;33476;-69
2022/04/22 03:53:12;;;;;;;15.98;7.03;;;;;;;11.75;45.41;98430.34;4288864;33;33915;-67
2022/04/22 03:55:42;;;;;;;13.75;7.80;;;;;;;10.88;47.41;98432.81;4289672;33;35140;-67
2022/04/22 03:58:11;;;;;;;16.00;7.03;;;;;;;11.23;45.77;98426.66;4289164;33;35306;-67
2022/04/22 04:00:49;;;;;;;11.80;7.15;;;;;;;11.33;45.97;98432.44;4280322;33;33588;-70
2022/04/22 04:03:23;;;;;;;13.10;7.43;;;;;;;11.35;45.24;98435.88;4282752;33;34804;-67
2022/04/22 04:05:51;;;;;;;20.45;7.15;;;;;;;11.45;45.85;98433.84;4289597;33;34956;-68
2022/04/22 04:08:21;;;;;;;15.00;7.12;;;;;;;11.38;46.27;98434.03;4288830;33;34311;-69
2022/04/22 04:16:23;;;;;;;12.03;6.60;;;;;;;11.97;44.31;98421.03;4289490;33;35032;-67
2022/04/22 04:18:52;;;;;;;12.88;7.53;;;;;;;11.42;45.87;98416.56;4287575;33;34468;-69
2022/04/22 04:24:07;;;;;;;;;;;;;;;11.77;44.98;98432.91;4285786;33;34023;-68
2022/04/22 04:26:35;;;;;;;11.32;6.37;;;;;;;11.78;44.89;98413.75;4289560;33;35323;-67
2022/04/22 04:29:04;;;;;;;12.57;7.15;;;;;;;12.07;43.84;98414.59;4288729;33;35343;-68
2022/04/22 04:31:33;;;;;;;12.13;6.95;;;;;;;11.64;44.77;98418.53;4289678;33;33256;-69
2022/04/22 04:34:01;;;;;;;14.38;7.05;;;;;;;12.16;44.96;98432.59;4288742;33;34180;-68
2022/04/22 04:36:29;;;;;;;13.88;6.93;;;;;;;11.51;44.95;98431.91;4274782;33;35028;-68
2022/04/22 04:38:57;;;;;;;14.55;7.18;;;;;;;11.81;44.68;98423.25;4285379;33;34507;-68
2022/04/22 04:41:25;;;;;;;12.40;7.15;;;;;;;11.80;44.61;98422.38;4289497;33;33467;-68
2022/04/22 04:43:53;;;;;;;15.57;8.02;;;;;;;11.43;45.38;98427.81;4288621;33;34654;-68
2022/04/22 04:46:21;;;;;;;12.85;7.30;;;;;;;11.81;44.73;98424.09;4289219;33;35036;-68
2022/04/22 04:48:49;;;;;;;10.70;7.10;;;;;;;11.42;45.37;98426.97;4288298;33;34484;-67
2022/04/22 04:51:17;;;;;;;12.65;7.78;;;;;;;11.34;45.58;98439.37;4288522;33;33673;-68
2022/04/22 04:53:45;;;;;;;13.95;7.62;;;;;;;11.15;46.30;98439.91;4289004;33;34614;-67
2022/04/22 04:56:13;;;;;;;12.37;7.95;;;;;;;11.06;46.47;98428.84;4291110;33;35029;-67
2022/04/22 04:58:41;;;;;;;13.43;7.15;;;;;;;11.17;46.36;98424.19;4290293;33;34548;-68
2022/04/22 05:01:09;;;;;;;15.10;8.35;;;;;;;11.44;45.83;98430.41;4291194;33;33513;-67
2022/04/22 05:03:38;;;;;;;14.77;9.13;;;;;;;11.28;46.13;98429.13;4290221;33;33894;-67
2022/04/22 05:06:06;;;;;;;13.18;7.87;;;;;;;11.51;46.52;98426.69;4276940;33;34928;-68
2022/04/22 05:08:34;;;;;;;14.18;8.13;;;;;;;11.32;46.29;98435.97;4289997;33;35369;-67
2022/04/22 05:11:03;;;;;;;13.62;7.50;;;;;;;11.17;46.60;98439.81;4291127;33;33291;-68
2022/04/22 05:13:30;;;;;;;13.32;7.87;;;;;;;11.55;46.00;98443.97;4289038;33;33945;-68
2022/04/22 05:15:59;;;;;;;18.62;8.93;;;;;;;11.18;46.53;98438.94;4290849;33;35204;-68
2022/04/22 05:18:27;;;;;;;18.15;9.38;;;;;;;11.32;46.62;98438.56;4289965;33;35235;-67
2022/04/22 05:20:54;;;;;;;14.45;8.98;;;;;;;11.20;46.67;98438.00;4290767;33;34385;-67
2022/04/22 05:23:23;;;;;;;13.55;8.23;;;;;;;11.54;45.66;98447.47;4288719;33;34641;-69
2022/04/22 05:25:50;;;;;;;12.55;8.70;;;;;;;10.98;47.21;98457.72;4290952;33;35044;-69
2022/04/22 05:28:19;;;;;;;13.00;8.18;;;;;;;11.30;46.57;98448.19;4291095;33;35306;-68
2022/04/22 05:33:34;;;;;;;13.43;8.95;;;;;;;11.40;46.58;98449.62;4290950;33;34996;-68
2022/04/22 05:36:02;;;;;;;16.20;8.70;;;;;;;11.05;46.54;98448.84;4290926;33;35733;-67
2022/04/22 05:38:30;;;;;;;15.30;8.80;;;;;;;11.06;47.03;98454.91;4284830;33;34578;-67
2022/04/22 05:40:58;;;;;;;13.62;8.95;;;;;;;11.14;46.77;98452.97;4286174;33;34276;-68
2022/04/22 05:43:26;;;;;;;14.27;7.93;;;;;;;10.96;47.57;98443.91;4289074;33;34569;-66
2022/04/22 05:45:54;;;;;;;14.35;8.70;;;;;;;11.05;47.23;98451.47;4290849;33;35015;-67
2022/04/22 05:48:22;;;;;;;14.60;8.85;;;;;;;10.87;47.54;98445.00;4289849;33;34426;-67
2022/04/22 05:50:50;;;;;;;16.40;9.13;;;;;;;11.07;47.81;98435.78;4290804;33;33559;-67
2022/04/22 05:53:18;;;;;;;15.23;8.95;;;;;;;11.37;46.90;98426.25;4289774;33;33937;-66
2022/04/22 05:55:46;;;;;;;15.90;9.82;;;;;;;10.91;47.22;98435.34;4282655;33;35908;-67
2022/04/22 05:58:15;;;;;;;18.90;8.55;;;;;;;11.12;46.84;98433.91;4271346;33;35294;-66
2022/04/22 06:00:43;;;;;;;13.85;8.50;;;;;;;11.67;45.57;98434.09;4291042;33;33590;-67
2022/04/22 06:03:11;;;;;;;14.30;9.35;;;;;;;11.33;46.28;98437.66;4290014;33;33938;-67
2022/04/22 06:05:39;;;;;;;15.43;9.23;;;;;;;11.63;45.33;98424.63;4290634;33;35067;-65
2022/04/22 06:10:54;;;;;;;16.70;8.93;;;;;;;11.54;45.91;98426.62;4286289;33;34319;-66
2022/04/22 06:13:22;;;;;;;17.77;9.68;;;;;;;11.55;45.80;98427.47;4280595;33;34053;-67
2022/04/22 06:15:50;;;;;;;22.23;9.73;;;;;;;11.62;45.55;98418.56;4288221;33;35960;-65
2022/04/22 06:18:18;;;;;;;15.07;8.98;;;;;;;11.16;46.77;98418.13;4289836;33;34557;-66
2022/04/22 06:20:48;;;;;;;16.60;8.88;;;;;;;11.61;46.46;98416.84;4290499;33;33363;-66
2022/04/22 06:23:16;;;;;;;15.18;8.68;;;;;;;11.44;46.25;98414.75;4289719;33;34772;-66
2022/04/22 06:25:48;;;;;;;15.05;9.02;;;;;;;11.35;46.91;98421.09;4289377;33;34941;-67
2022/04/22 06:28:16;;;;;;;20.65;9.60;;;;;;;11.39;46.50;98414.88;4281080;33;34429;-66
2022/04/22 06:30:46;;;;;;;15.05;8.48;;;;;;;11.58;46.15;98420.41;4283496;33;33785;-66
2022/04/22 06:33:16;;;;;;;12.50;8.02;;;;;;;11.54;45.93;98416.19;4279107;33;34118;-73
2022/04/22 06:35:44;;;;;;;16.00;9.05;;;;;;;11.80;45.31;98417.16;4290567;33;35036;-66
2022/04/22 06:38:15;;;;;;;14.50;8.90;;;;;;;11.82;45.20;98415.34;4289382;33;35336;-66
2022/04/22 06:46:19;;;;;;;14.80;8.57;;;;;;;11.83;45.02;98411.00;4287029;33;36014;-68
2022/04/22 06:48:47;;;;;;;19.08;8.60;;;;;;;11.91;45.20;98404.69;4281523;33;35183;-67
2022/04/22 06:51:20;;;;;;;14.30;8.48;;;;;;;11.69;45.56;98399.22;4290426;33;33606;-66
2022/04/22 06:53:52;;;;;;;14.95;8.55;;;;;;;11.65;45.03;98407.19;4289697;33;33867;-66
2022/04/22 06:56:27;;;;;;;16.80;10.13;;;;;;;11.51;45.54;98411.06;4290349;33;35895;-66
2022/04/22 06:58:55;;;;;;;15.35;8.65;;;;;;;11.75;45.24;98404.28;4289597;33;34317;-67
2022/04/22 07:01:24;;;;;;;16.00;8.68;;;;;;;12.08;44.74;98404.12;4289621;33;33499;-69
2022/04/22 07:04:10;;;;;;;14.30;8.50;;;;;;;11.88;45.39;98403.88;4283419;33;33427;-67
2022/04/22 07:06:38;;;;;;;15.07;8.45;;;;;;;11.92;45.00;98405.53;4289515;33;35139;-67
2022/04/22 07:09:07;;;;;;;18.90;10.10;;;;;;;11.88;44.78;98409.09;4288274;33;35323;-66
2022/04/22 07:11:35;;;;;;;15.63;8.85;;;;;;;11.73;45.15;98415.63;4290289;33;34050;-67
2022/04/22 07:14:04;;;;;;;15.82;9.38;;;;;;;12.19;44.38;98414.22;4289411;33;34711;-67
2022/04/22 07:16:32;;;;;;;16.15;8.27;;;;;;;12.09;44.96;98412.84;4288531;33;35855;-67
2022/04/22 07:19:00;;;;;;;15.23;8.45;;;;;;;12.13;44.64;98410.06;4287587;33;35326;-67
2022/04/22 07:21:29;;;;;;;16.02;8.13;;;;;;;12.18;44.39;98409.91;4289972;33;33809;-67
2022/04/22 07:23:59;;;;;;;14.18;8.65;;;;;;;12.14;44.93;98406.56;4289325;33;34163;-66
2022/04/22 07:26:27;;;;;;;13.00;8.50;;;;;;;12.25;45.30;98408.81;4290303;33;35101;-67
2022/04/22 07:28:57;;;;;;;18.23;9.70;;;;;;;11.97;46.75;98410.59;4289335;33;35273;-67
2022/04/22 07:31:29;;;;;;;13.70;8.75;;;;;;;11.42;48.09;98405.25;4284492;33;33432;-67
2022/04/22 07:33:58;;;;;;;16.10;9.98;;;;;;;11.25;49.46;98405.75;4281322;33;33712;-67
2022/04/22 07:36:26;;;;;;;15.02;9.30;;;;;;;12.20;48.12;98408.09;4290163;33;35067;-67
2022/04/22 07:38:54;;;;;;;19.83;9.32;;;;;;;12.41;47.25;98405.72;4289074;33;34394;-67
2022/04/22 07:41:27;;;;;;;43.87;22.13;;;;;;;11.93;49.67;98400.25;4290152;33;33525;-67
2022/04/22 07:46:47;;;;;;;24.42;11.88;;;;;;;12.00;50.38;98398.31;4286748;33;35063;-67
2022/04/22 07:49:16;;;;;;;17.62;9.85;;;;;;;11.92;52.76;98401.16;4273473;33;34485;-68
2022/04/22 07:51:44;;;;;;;18.83;12.60;;;;;;;12.38;50.41;98392.75;4274546;33;33375;-67
2022/04/22 07:54:12;;;;;;;22.15;9.48;;;;;;;11.28;54.07;98390.03;4281536;33;34668;-67
2022/04/22 07:56:43;;;;;;;16.45;9.95;;;;;;;12.05;50.89;98392.94;4289194;33;35626;-66
2022/04/22 07:59:12;;;;;;;18.87;10.45;;;;;;;12.06;52.13;98398.09;4288880;33;34468;-70
2022/04/22 08:01:39;;;;;;;24.77;10.32;;;;;;;12.00;52.28;98400.94;4289025;33;33646;-68
2022/04/22 08:04:10;;;;;;;16.15;9.95;;;;;;;11.78;54.14;98400.69;4284836;33;34652;-67
2022/04/22 08:06:38;;;;;;;18.60;11.20;;;;;;;11.06;54.64;98397.59;4289628;33;35261;-71
2022/04/22 08:09:06;;;;;;;17.83;10.88;;;;;;;11.06;54.97;98398.44;4281709;33;34412;-68
2022/04/22 08:11:35;;;;;;;19.62;10.43;;;;;;;11.45;53.91;98394.75;4288588;33;33810;-67
2022/04/22 08:14:03;;;;;;;18.37;10.93;;;;;;;11.69;55.24;98390.56;4288437;33;34757;-68
2022/04/22 08:16:31;;;;;;;23.45;17.58;;;;;;;11.98;54.13;98394.03;4289715;33;35149;-67
2022/04/22 08:19:00;;;;;;;19.58;10.35;;;;;;;11.93;55.57;98392.44;4288680;33;34358;-67
2022/04/22 08:21:33;;;;;;;18.60;10.70;;;;;;;11.99;54.85;98391.38;4289484;33;33270;-68
2022/04/22 08:24:02;;;;;;;16.98;10.95;;;;;;;11.72;56.32;98387.84;4288719;33;34874;-67
2022/04/22 08:26:32;;;;;;;21.85;10.90;;;;;;;11.31;58.02;98388.19;4280579;33;34919;-67
2022/04/22 08:29:00;;;;;;;23.65;13.52;;;;;;;11.57;56.89;98384.78;4279380;33;35287;-67
2022/04/22 08:31:29;;;;;;;20.52;12.82;;;;;;;11.15;59.08;98382.56;4291167;33;34482;-75
2022/04/22 08:33:57;;;;;;;20.67;11.32;;;;;;;11.24;60.35;98375.38;4290537;33;33872;-67
2022/04/22 08:36:29;;;;;;;29.08;12.43;;;;;;;11.55;59.53;98381.38;4290445;33;35038;-68
2022/04/22 08:38:58;;;;;;;21.30;12.05;;;;;;;11.35;60.75;98378.53;4290305;33;34464;-67
2022/04/22 08:41:27;;;;;;;18.62;11.05;;;;;;;11.09;61.59;98380.13;4290416;33;34481;-67
2022/04/22 08:43:58;;;;;;;19.17;11.68;;;;;;;11.13;63.89;98371.31;4279629;33;33582;-67
2022/04/22 08:52:02;;;;;;;22.20;12.60;;;;;;;11.27;63.30;98355.28;4290241;33;33616;-67
2022/04/22 08:54:35;;;;;;;18.52;12.40;;;;;;;10.70;66.53;98354.28;4289734;33;33385;-67
2022/04/22 08:57:03;;;;;;;25.05;12.88;;;;;;;11.08;65.71;98348.91;4278347;33;35754;-67
2022/04/22 08:59:31;;;;;;;20.52;12.32;;;;;;;11.10;67.46;98352.31;4290897;33;34442;-68
2022/04/22 09:01:59;;;;;;;21.80;12.95;;;;;;;11.32;67.39;98352.56;4289810;33;33735;-67
2022/04/22 09:04:28;;;;;;;21.23;12.60;;;;;;;11.36;68.40;98344.63;4290827;33;33922;-67
2022/04/22 09:06:56;;;;;;;27.27;14.32;;;;;;;11.56;68.94;98335.31;4289639;33;35913;-68
2022/04/22 09:09:24;;;;;;;22.45;13.25;;;;;;;11.76;67.36;98334.69;4280417;33;35143;-67
2022/04/22 09:12:12;;;;;;;21.98;13.88;;;;;;;11.81;68.59;98330.19;4291125;33;33675;-67
2022/04/22 09:14:45;;;;;;;24.77;13.98;;;;;;;11.89;68.66;98325.56;4288160;33;33993;-68
2022/04/22 09:17:28;;;;;;;25.27;12.95;;;;;;;11.76;68.90;98326.88;4289883;33;35044;-67
2022/04/22 09:19:57;;;;;;;22.27;13.38;;;;;;;11.23;70.76;98316.34;4290137;33;33919;-75
2022/04/22 09:22:27;;;;;;;21.35;13.52;;;;;;;11.83;69.77;98307.50;4289753;33;34344;-68
2022/04/22 09:24:56;;;;;;;21.25;12.77;;;;;;;11.54;70.71;98316.25;4288621;33;34829;-67
2022/04/22 09:27:35;;;;;;;26.23;16.33;;;;;;;11.87;70.02;98309.09;4289551;33;35828;-69
2022/04/22 09:30:07;;;;;;;18.98;12.02;;;;;;;11.70;71.57;98300.97;4287894;33;34316;-66
2022/04/22 09:32:39;;;;;;;21.12;12.68;;;;;;;11.27;73.04;98300.56;4290597;33;34180;-72
2022/04/22 09:35:10;;;;;;;20.42;12.57;;;;;;;11.52;71.68;98297.19;4289996;33;33691;-67
2022/04/22 09:43:44;;;;;;;20.65;12.93;;;;;;;11.54;71.89;98291.06;4290326;33;33453;-67
2022/04/22 09:46:24;;;;;;;23.58;13.85;;;;;;;11.67;72.12;98269.81;4277797;33;34058;-67
2022/04/22 09:48:54;;;;;;;23.23;13.85;;;;;;;11.78;72.03;98272.91;4289993;33;36020;-67
2022/04/22 09:51:28;;;;;;;26.27;14.57;;;;;;;12.01;72.12;98277.38;4289832;33;34597;-67
2022/04/22 09:54:01;;;;;;;21.55;13.10;;;;;;;11.62;73.39;98276.91;4289965;33;33850;-67
2022/04/22 09:56:32;;;;;;;20.48;12.40;;;;;;;11.93;71.83;98280.25;4288736;33;34140;-66
2022/04/22 09:59:23;;;;;;;20.75;12.70;;;;;;;12.32;70.13;98278.97;4288843;33;34365;-67
2022/04/22 10:01:52;;;;;;;28.52;14.02;;;;;;;12.19;70.01;98281.13;4289862;33;35222;-67
2022/04/22 10:04:38;;;;;;;19.98;12.45;;;;;;;12.02;70.30;98286.06;4289842;33;34360;-66
2022/04/22 10:07:08;;;;;;;20.15;13.23;;;;;;;12.14;69.66;98288.25;4289673;33;34822;-66
2022/04/22 10:09:36;;;;;;;22.25;13.25;;;;;;;11.48;72.14;98290.38;4289007;33;35093;-66
2022/04/22 10:12:09;;;;;;;22.20;12.18;;;;;;;11.54;73.01;98285.84;4289983;33;34465;-67
2022/04/22 10:14:38;;;;;;;23.70;14.15;;;;;;;11.91;70.96;98271.63;4289844;33;33321;-67
2022/04/22 10:17:07;;;;;;;23.25;13.65;;;;;;;11.60;71.92;98273.50;4290100;33;33837;-67
2022/04/22 10:19:35;;;;;;;20.70;13.05;;;;;;;12.08;72.13;98276.28;4288576;33;35095;-67
2022/04/22 10:22:07;;;;;;;24.15;14.77;;;;;;;11.93;72.00;98274.19;4289626;33;34448;-66
2022/04/22 10:24:35;;;;;;;23.58;13.35;;;;;;;11.89;70.63;98270.78;4289894;33;33010;-67
2022/04/22 10:27:04;;;;;;;22.17;13.77;;;;;;;12.24;69.27;98260.09;4289632;33;33500;-67
2022/04/22 10:29:53;;;;;;;23.30;12.70;;;;;;;11.93;71.28;98258.53;4288816;33;35048;-67
2022/04/22 10:32:21;;;;;;;21.37;12.95;;;;;;;12.19;68.75;98256.78;4287631;33;34605;-67
2022/04/22 10:34:57;;;;;;;20.30;13.10;;;;;;;11.98;68.66;98263.59;4289526;33;33638;-68
2022/04/22 10:37:27;;;;;;;24.65;14.00;;;;;;;11.80;70.41;98252.81;4290665;33;34001;-67
2022/04/22 10:39:59;;;;;;;25.00;13.68;;;;;;;11.87;70.49;98248.28;4289420;33;35198;-67
2022/04/22 10:42:34;;;;;;;18.65;11.93;;;;;;;11.63;71.42;98252.53;4289702;33;34422;-67
2022/04/22 10:47:53;;;;;;;19.65;12.85;;;;;;;11.66;70.60;98242.00;4289674;33;33903;-66
2022/04/22 10:50:21;;;;;;;21.60;13.50;;;;;;;11.64;69.65;98244.66;4289266;33;36038;-67
2022/04/22 10:53:03;;;;;;;23.52;12.68;;;;;;;11.62;70.44;98230.81;4287963;33;35283;-67
2022/04/22 10:55:41;;;;;;;18.98;12.80;;;;;;;11.64;70.91;98228.16;4290497;33;34120;-67
2022/04/22 10:58:30;;;;;;;;;;;;;;;11.56;71.87;98229.28;4289776;33;34002;-68
2022/04/22 11:00:58;;;;;;;25.42;12.45;;;;;;;11.88;69.81;98229.12;4289641;33;36017;-67
2022/04/22 11:03:36;;;;;;;23.60;13.98;;;;;;;11.63;70.90;98232.53;4288683;33;34479;-67
2022/04/22 11:06:12;;;;;;;20.83;12.63;;;;;;;11.53;72.23;98231.97;4288916;33;33454;-68
2022/04/22 11:08:41;;;;;;;20.65;13.20;;;;;;;11.29;72.99;98227.53;4286077;33;34116;-67
2022/04/22 11:11:13;;;;;;;23.55;13.52;;;;;;;11.72;71.78;98220.97;4290032;33;35050;-68
2022/04/22 11:13:46;;;;;;;22.02;12.15;;;;;;;11.63;73.19;98218.63;4289439;33;35307;-74
2022/04/22 11:16:15;;;;;;;21.20;12.60;;;;;;;11.74;72.07;98216.53;4277867;33;33510;-68
2022/04/22 11:18:45;;;;;;;22.08;13.23;;;;;;;11.92;71.61;98215.94;4285981;33;34033;-68
2022/04/22 11:21:35;;;;;;;23.58;13.57;;;;;;;12.21;69.73;98208.88;4290186;33;34828;-67
2022/04/22 11:24:25;;;;;;;19.92;11.12;;;;;;;12.21;69.90;98206.25;4289189;33;33441;-67
2022/04/22 11:27:11;;;;;;;20.02;12.48;;;;;;;12.42;69.92;98203.75;4290173;33;33527;-67
2022/04/22 11:29:40;;;;;;;17.52;10.27;;;;;;;12.47;68.13;98199.22;4275911;33;33954;-68
2022/04/22 11:32:23;;;;;;;20.83;11.55;;;;;;;12.57;68.07;98202.37;4285762;33;35761;-68
2022/04/22 11:34:53;;;;;;;18.80;12.35;;;;;;;12.87;67.20;98202.97;4290284;33;34450;-69
2022/04/22 11:37:22;;;;;;;16.00;10.98;;;;;;;12.99;64.35;98199.88;4289311;33;33800;-68
2022/04/22 11:39:51;;;;;;;16.27;10.43;;;;;;;13.20;62.36;98199.91;4289979;33;33992;-67
2022/04/22 11:42:19;;;;;;;19.52;12.02;;;;;;;13.08;62.85;98207.34;4289290;33;35778;-68
2022/04/22 11:45:03;;;;;;;14.55;9.90;;;;;;;12.79;63.21;98205.00;4290150;33;35001;-68
2022/04/22 11:47:31;;;;;;;17.65;11.05;;;;;;;13.02;61.53;98198.88;4288192;33;33512;-72
2022/04/22 11:50:00;;;;;;;15.75;10.38;;;;;;;13.04;60.93;98211.00;4290112;33;34368;-67
2022/04/22 11:52:31;;;;;;;16.58;10.32;;;;;;;13.25;60.59;98197.97;4289280;33;35045;-68
2022/04/22 11:55:06;;;;;;;17.60;10.02;;;;;;;13.44;58.37;98191.12;4289158;33;35330;-68
2022/04/22 11:57:37;;;;;;;18.45;11.30;;;;;;;13.87;57.20;98185.00;4289253;33;33546;-68
2022/04/22 12:05:48;;;;;;;13.45;9.98;;;;;;;14.21;55.38;98164.31;4287150;33;34515;-67
2022/04/22 12:08:18;;;;;;;15.93;10.40;;;;;;;13.99;53.85;98163.56;4288784;33;33475;-69
2022/04/22 12:10:48;;;;;;;16.08;9.45;;;;;;;13.72;56.75;98170.84;4287504;33;33900;-72
2022/04/22 12:13:16;;;;;;;14.98;10.07;;;;;;;13.67;55.49;98157.94;4287537;33;36056;-68
2022/04/22 12:15:48;;;;;;;13.43;8.40;;;;;;;14.01;54.26;98152.12;4287068;33;33710;-69
2022/04/22 12:18:34;;;;;;;;;;;;;;;14.31;54.45;98140.34;4286437;33;33567;-68
2022/04/22 12:21:06;;;;;;;15.15;9.70;;;;;;;14.01;53.44;98140.78;4284498;33;34384;-68
2022/04/22 12:23:41;;;;;;;14.10;7.62;;;;;;;13.91;52.57;98140.34;4287517;33;34870;-67
2022/04/22 12:26:15;;;;;;;12.18;7.87;;;;;;;13.94;51.25;98124.53;4284834;33;34134;-68
2022/04/22 12:29:09;;;;;;;12.23;8.18;;;;;;;13.94;52.75;98119.28;4285515;33;34625;-68
2022/04/22 12:31:39;;;;;;;13.27;8.63;;;;;;;14.02;50.44;98132.84;4287517;33;33831;-67